createdAt,value
2022-10-29T00:00:32.905Z,0
2022-10-29T00:01:32.928Z,0
2022-10-29T00:02:32.948Z,0
2022-10-29T00:03:32.874Z,0
2022-10-29T00:04:32.862Z,0
2022-10-29T00:05:32.857Z,0
2022-10-29T00:06:32.844Z,0
2022-10-29T00:07:32.834Z,0
2022-10-29T00:08:32.820Z,0
2022-10-29T00:09:32.809Z,0
2022-10-29T00:10:32.800Z,0
2022-10-29T00:11:32.785Z,0
2022-10-29T00:12:32.776Z,0
2022-10-29T00:13:32.768Z,0
2022-10-29T00:14:32.754Z,0
2022-10-29T00:15:32.745Z,0
2022-10-29T00:16:32.734Z,0
2022-10-29T00:17:32.720Z,0
2022-10-29T00:18:32.710Z,0
2022-10-29T00:19:32.702Z,0
2022-10-29T00:20:32.693Z,0
2022-10-29T00:21:32.679Z,0
2022-10-29T00:22:32.669Z,0
2022-10-29T00:23:32.660Z,0
2022-10-29T00:24:32.648Z,0
2022-10-29T00:25:32.636Z,0
2022-10-29T00:26:32.632Z,0
2022-10-29T00:27:32.628Z,0
2022-10-29T00:28:32.607Z,0
2022-10-29T00:29:32.598Z,0
2022-10-29T00:30:32.582Z,0
2022-10-29T00:31:32.576Z,0
2022-10-29T00:32:32.567Z,0
2022-10-29T00:33:32.565Z,0
2022-10-29T00:34:32.538Z,0
2022-10-29T00:35:32.541Z,0
2022-10-29T00:36:32.515Z,0
2022-10-29T00:37:32.515Z,0
2022-10-29T00:38:32.497Z,0
2022-10-29T00:39:32.506Z,0
2022-10-29T00:40:32.475Z,0
2022-10-29T00:41:32.465Z,0
2022-10-29T00:42:32.457Z,0
2022-10-29T00:43:32.438Z,0
2022-10-29T00:44:32.432Z,0
2022-10-29T00:45:32.420Z,0
2022-10-29T00:46:32.419Z,0
2022-10-29T00:47:32.397Z,0
2022-10-29T00:48:32.393Z,0
2022-10-29T00:49:32.385Z,0
2022-10-29T00:50:32.373Z,0
2022-10-29T00:51:32.363Z,0
2022-10-29T00:52:32.352Z,0
2022-10-29T00:53:32.335Z,0
2022-10-29T00:54:32.334Z,0
2022-10-29T00:55:32.314Z,0
2022-10-29T00:56:32.309Z,0
2022-10-29T00:57:32.295Z,0
2022-10-29T00:58:32.282Z,0
2022-10-29T00:59:32.273Z,0
2022-10-29T01:00:32.257Z,0
2022-10-29T01:01:32.249Z,0
2022-10-29T01:02:32.237Z,0
2022-10-29T01:03:32.230Z,0
2022-10-29T01:04:32.234Z,0
2022-10-29T01:05:32.204Z,0
2022-10-29T01:06:32.215Z,0
2022-10-29T01:07:32.186Z,0
2022-10-29T01:08:32.176Z,0
2022-10-29T01:09:32.171Z,0
2022-10-29T01:10:32.149Z,0
2022-10-29T01:11:32.151Z,0
2022-10-29T01:12:32.134Z,0
2022-10-29T01:13:32.125Z,0
2022-10-29T01:14:32.109Z,0
2022-10-29T01:15:32.102Z,0
2022-10-29T01:16:32.105Z,0
2022-10-29T01:17:32.079Z,0
2022-10-29T01:18:32.067Z,0
2022-10-29T01:19:32.055Z,0
2022-10-29T01:20:32.051Z,0
2022-10-29T01:21:32.051Z,0
2022-10-29T01:22:32.024Z,0
2022-10-29T01:23:32.015Z,0
2022-10-29T01:24:32.005Z,0
2022-10-29T01:25:31.998Z,0
2022-10-29T01:26:31.987Z,0
2022-10-29T01:27:31.982Z,0
2022-10-29T01:28:31.960Z,0
2022-10-29T01:29:31.953Z,0
2022-10-29T01:30:31.946Z,0
2022-10-29T01:31:31.926Z,0
2022-10-29T01:32:31.915Z,0
2022-10-29T01:33:31.910Z,0
2022-10-29T01:34:31.893Z,0
2022-10-29T01:35:31.886Z,0
2022-10-29T01:36:31.873Z,0
2022-10-29T01:37:31.861Z,0
2022-10-29T01:38:31.858Z,0
2022-10-29T01:39:31.838Z,0
2022-10-29T01:40:31.827Z,0
2022-10-29T01:41:31.835Z,0
2022-10-29T01:42:31.808Z,0
2022-10-29T01:43:31.802Z,0
2022-10-29T01:44:31.793Z,0
2022-10-29T01:45:31.777Z,0
2022-10-29T01:46:31.769Z,0
2022-10-29T01:47:31.764Z,0
2022-10-29T01:48:31.749Z,0
2022-10-29T01:49:31.739Z,0
2022-10-29T01:50:31.734Z,0
2022-10-29T01:51:31.712Z,0
2022-10-29T01:52:31.703Z,0
2022-10-29T01:53:31.691Z,0
2022-10-29T01:54:31.681Z,0
2022-10-29T01:55:31.672Z,0
2022-10-29T01:56:31.661Z,0
2022-10-29T01:57:31.647Z,0
2022-10-29T01:58:31.640Z,0
2022-10-29T01:59:31.627Z,0
2022-10-29T02:00:31.620Z,0
2022-10-29T02:01:31.644Z,0
2022-10-29T02:02:31.602Z,0
2022-10-29T02:03:31.589Z,0
2022-10-29T02:04:31.574Z,0
2022-10-29T02:05:31.561Z,0
2022-10-29T02:06:31.552Z,0
2022-10-29T02:07:31.543Z,0
2022-10-29T02:08:31.532Z,0
2022-10-29T02:09:31.521Z,0
2022-10-29T02:10:31.512Z,0
2022-10-29T02:11:31.495Z,0
2022-10-29T02:12:31.490Z,0
2022-10-29T02:13:31.478Z,0
2022-10-29T02:14:31.486Z,0
2022-10-29T02:15:31.461Z,0
2022-10-29T02:16:31.446Z,0
2022-10-29T02:17:31.433Z,0
2022-10-29T02:18:31.433Z,0
2022-10-29T02:19:31.422Z,0
2022-10-29T02:20:31.398Z,0
2022-10-29T02:21:31.397Z,0
2022-10-29T02:22:31.375Z,0
2022-10-29T02:23:31.367Z,0
2022-10-29T02:24:31.360Z,0
2022-10-29T02:25:31.341Z,0
2022-10-29T02:26:31.373Z,0
2022-10-29T02:27:31.328Z,0
2022-10-29T02:28:31.315Z,0
2022-10-29T02:29:31.301Z,0
2022-10-29T02:30:31.293Z,0
2022-10-29T02:31:31.277Z,0
2022-10-29T02:32:31.266Z,0
2022-10-29T02:33:31.256Z,0
2022-10-29T02:34:31.248Z,0
2022-10-29T02:35:31.236Z,0
2022-10-29T02:36:31.234Z,0
2022-10-29T02:37:31.216Z,0
2022-10-29T02:38:31.203Z,0
2022-10-29T02:39:31.194Z,0
2022-10-29T02:40:31.179Z,0
2022-10-29T02:41:31.187Z,0
2022-10-29T02:42:31.157Z,0
2022-10-29T02:43:31.158Z,0
2022-10-29T02:44:31.140Z,0
2022-10-29T02:45:31.123Z,0
2022-10-29T02:46:31.118Z,0
2022-10-29T02:47:31.105Z,0
2022-10-29T02:48:31.100Z,0
2022-10-29T02:49:31.084Z,0
2022-10-29T02:50:31.076Z,0
2022-10-29T02:51:31.062Z,0
2022-10-29T02:52:31.051Z,0
2022-10-29T02:53:31.056Z,0
2022-10-29T02:54:31.029Z,0
2022-10-29T02:55:31.022Z,0
2022-10-29T02:56:31.006Z,0
2022-10-29T02:57:30.994Z,0
2022-10-29T02:58:30.982Z,0
2022-10-29T02:59:30.986Z,0
2022-10-29T03:00:30.966Z,0
2022-10-29T03:01:30.950Z,0
2022-10-29T03:02:30.945Z,0
2022-10-29T03:03:30.934Z,0
2022-10-29T03:04:30.921Z,0
2022-10-29T03:05:30.913Z,0
2022-10-29T03:06:30.905Z,0
2022-10-29T03:07:30.888Z,0
2022-10-29T03:08:30.878Z,0
2022-10-29T03:09:30.868Z,0
2022-10-29T03:10:30.859Z,0
2022-10-29T03:11:30.853Z,0
2022-10-29T03:12:30.838Z,0
2022-10-29T03:13:30.822Z,0
2022-10-29T03:14:30.812Z,0
2022-10-29T03:15:30.807Z,0
2022-10-29T03:16:30.802Z,0
2022-10-29T03:17:30.785Z,0
2022-10-29T03:18:30.775Z,0
2022-10-29T03:19:30.761Z,0
2022-10-29T03:20:30.750Z,0
2022-10-29T03:21:30.746Z,0
2022-10-29T03:22:30.729Z,0
2022-10-29T03:23:30.722Z,0
2022-10-29T03:24:30.711Z,0
2022-10-29T03:25:30.697Z,0
2022-10-29T03:26:30.687Z,0
2022-10-29T03:27:30.677Z,0
2022-10-29T03:28:30.665Z,0
2022-10-29T03:29:30.660Z,0
2022-10-29T03:30:30.650Z,0
2022-10-29T03:31:30.635Z,0
2022-10-29T03:32:30.627Z,0
2022-10-29T03:33:30.621Z,0
2022-10-29T03:34:30.604Z,0
2022-10-29T03:35:30.592Z,0
2022-10-29T03:36:30.590Z,0
2022-10-29T03:37:30.575Z,0
2022-10-29T03:38:30.563Z,0
2022-10-29T03:39:30.558Z,0
2022-10-29T03:40:30.546Z,0
2022-10-29T03:41:30.532Z,0
2022-10-29T03:42:30.533Z,0
2022-10-29T03:43:30.524Z,0
2022-10-29T03:44:30.501Z,0
2022-10-29T03:45:30.491Z,0
2022-10-29T03:46:30.486Z,0
2022-10-29T03:47:30.474Z,0
2022-10-29T03:48:30.460Z,0
2022-10-29T03:49:30.453Z,0
2022-10-29T03:50:30.436Z,0
2022-10-29T03:51:30.429Z,0
2022-10-29T03:52:30.424Z,0
2022-10-29T03:53:30.410Z,0
2022-10-29T03:54:30.398Z,0
2022-10-29T03:55:30.387Z,0
2022-10-29T03:56:30.380Z,0
2022-10-29T03:57:30.368Z,0
2022-10-29T03:58:30.354Z,0
2022-10-29T03:59:30.347Z,0
2022-10-29T04:00:30.341Z,0
2022-10-29T04:01:30.323Z,0
2022-10-29T04:02:30.312Z,0
2022-10-29T04:03:30.313Z,0
2022-10-29T04:04:30.293Z,0
2022-10-29T04:05:30.279Z,0
2022-10-29T04:06:30.287Z,0
2022-10-29T04:07:30.259Z,0
2022-10-29T04:08:30.251Z,0
2022-10-29T04:09:30.239Z,0
2022-10-29T04:10:30.240Z,0
2022-10-29T04:11:30.220Z,0
2022-10-29T04:12:30.228Z,0
2022-10-29T04:13:30.206Z,0
2022-10-29T04:14:30.195Z,0
2022-10-29T04:15:30.180Z,0
2022-10-29T04:16:30.168Z,0
2022-10-29T04:17:30.162Z,0
2022-10-29T04:18:30.148Z,0
2022-10-29T04:19:30.142Z,0
2022-10-29T04:20:30.137Z,0
2022-10-29T04:21:30.114Z,0
2022-10-29T04:25:30.088Z,0
2022-10-29T04:27:30.074Z,0
2022-10-29T04:28:30.057Z,0
2022-10-29T04:29:30.043Z,0
2022-10-29T04:30:30.035Z,0
2022-10-29T04:31:30.014Z,0
2022-10-29T04:32:30.011Z,0
2022-10-29T04:33:30.002Z,0
2022-10-29T04:34:29.983Z,0
2022-10-29T04:35:29.972Z,0
2022-10-29T04:36:29.962Z,0
2022-10-29T04:37:29.952Z,0
2022-10-29T04:38:29.953Z,0
2022-10-29T04:39:29.952Z,0
2022-10-29T04:40:29.920Z,0
2022-10-29T04:41:29.910Z,0
2022-10-29T04:42:29.913Z,0
2022-10-29T04:43:29.917Z,0
2022-10-29T04:44:29.890Z,0
2022-10-29T04:45:29.904Z,0
2022-10-29T04:46:29.865Z,0
2022-10-29T04:47:29.858Z,0
2022-10-29T04:48:29.851Z,0
2022-10-29T04:49:29.859Z,0
2022-10-29T04:50:29.816Z,0
2022-10-29T04:51:29.813Z,0
2022-10-29T04:52:29.809Z,0
2022-10-29T04:53:29.798Z,0
2022-10-29T04:54:29.798Z,0
2022-10-29T04:55:29.770Z,0
2022-10-29T04:56:29.765Z,0
2022-10-29T04:57:29.752Z,0
2022-10-29T04:58:29.744Z,0
2022-10-29T04:59:29.760Z,0
2022-10-29T05:00:29.713Z,0
2022-10-29T05:01:29.714Z,0
2022-10-29T05:02:29.701Z,0
2022-10-29T05:03:29.687Z,0
2022-10-29T05:04:29.669Z,0
2022-10-29T05:05:29.670Z,0
2022-10-29T05:06:29.658Z,0
2022-10-29T05:07:29.661Z,0
2022-10-29T05:08:29.637Z,0
2022-10-29T05:09:29.631Z,0
2022-10-29T05:10:29.609Z,0
2022-10-29T05:11:29.618Z,0
2022-10-29T05:12:29.594Z,0
2022-10-29T05:13:29.603Z,0
2022-10-29T05:14:29.578Z,0
2022-10-29T05:15:29.566Z,0
2022-10-29T05:16:29.572Z,0
2022-10-29T05:17:29.546Z,0
2022-10-29T05:18:29.530Z,0
2022-10-29T05:19:29.532Z,0
2022-10-29T05:20:29.506Z,0
2022-10-29T05:21:29.525Z,0
2022-10-29T05:22:29.544Z,0
2022-10-29T05:23:29.490Z,0
2022-10-29T05:24:29.467Z,0
2022-10-29T05:25:29.461Z,0
2022-10-29T05:26:29.451Z,0
2022-10-29T05:27:29.431Z,0
2022-10-29T05:28:29.429Z,0
2022-10-29T05:29:29.423Z,0
2022-10-29T05:30:29.411Z,0
2022-10-29T05:31:29.413Z,0
2022-10-29T05:32:29.393Z,0
2022-10-29T05:33:29.387Z,0
2022-10-29T05:34:29.369Z,0
2022-10-29T05:35:29.356Z,0
2022-10-29T05:36:29.347Z,0
2022-10-29T05:37:29.353Z,0
2022-10-29T05:38:29.334Z,0
2022-10-29T05:39:29.355Z,0
2022-10-29T05:40:29.362Z,0
2022-10-29T05:41:29.289Z,0
2022-10-29T05:42:29.287Z,0
2022-10-29T05:43:29.278Z,0
2022-10-29T05:44:29.306Z,0
2022-10-29T05:45:29.263Z,0
2022-10-29T05:46:29.292Z,0
2022-10-29T05:47:36.883Z,0
2022-10-29T05:48:29.245Z,0
2022-10-29T05:49:29.249Z,0
2022-10-29T05:50:29.238Z,0
2022-10-29T05:51:29.227Z,0
2022-10-29T05:52:29.195Z,0
2022-10-29T05:53:29.179Z,0
2022-10-29T05:54:29.189Z,0
2022-10-29T05:55:29.185Z,0
2022-10-29T05:56:29.259Z,0
2022-10-29T05:57:29.138Z,0
2022-10-29T05:58:29.125Z,0
2022-10-29T05:59:29.109Z,0
2022-10-29T06:00:29.328Z,0
2022-10-29T06:01:29.082Z,0
2022-10-29T06:02:29.076Z,0
2022-10-29T06:03:29.063Z,0
2022-10-29T06:04:29.049Z,0
2022-10-29T06:05:29.046Z,0
2022-10-29T06:06:29.031Z,0
2022-10-29T06:07:29.023Z,0
2022-10-29T06:08:29.012Z,0
2022-10-29T06:09:29.003Z,0
2022-10-29T06:10:28.998Z,0
2022-10-29T06:11:28.986Z,0
2022-10-29T06:12:28.968Z,0
2022-10-29T06:13:28.961Z,0
2022-10-29T06:14:28.950Z,0
2022-10-29T06:15:28.938Z,0
2022-10-29T06:16:28.928Z,0
2022-10-29T06:17:28.922Z,0
2022-10-29T06:18:28.910Z,0
2022-10-29T06:19:28.899Z,0
2022-10-29T06:20:28.889Z,0
2022-10-29T06:21:28.874Z,0
2022-10-29T06:22:28.866Z,0
2022-10-29T06:23:28.867Z,0
2022-10-29T06:24:28.877Z,0
2022-10-29T06:25:28.841Z,5.62
2022-10-29T06:26:28.827Z,5.62
2022-10-29T06:27:28.823Z,5.62
2022-10-29T06:28:28.803Z,5.62
2022-10-29T06:29:28.798Z,5.62
2022-10-29T06:30:28.789Z,5.62
2022-10-29T06:31:28.781Z,5.62
2022-10-29T06:32:28.769Z,5.62
2022-10-29T06:33:28.751Z,5.62
2022-10-29T06:34:28.748Z,5.62
2022-10-29T06:35:28.749Z,5.62
2022-10-29T06:36:28.721Z,5.62
2022-10-29T06:37:28.722Z,5.62
2022-10-29T06:38:28.708Z,11.25
2022-10-29T06:39:28.692Z,11.25
2022-10-29T06:40:28.701Z,11.25
2022-10-29T06:41:28.671Z,11.25
2022-10-29T06:42:28.658Z,11.25
2022-10-29T06:43:28.659Z,11.25
2022-10-29T06:44:28.636Z,11.25
2022-10-29T06:45:28.634Z,11.25
2022-10-29T06:46:28.623Z,11.25
2022-10-29T06:47:28.603Z,11.25
2022-10-29T06:48:28.605Z,11.25
2022-10-29T06:49:28.590Z,16.88
2022-10-29T06:50:28.573Z,16.88
2022-10-29T06:51:28.572Z,16.88
2022-10-29T06:52:28.570Z,16.88
2022-10-29T06:53:28.557Z,16.88
2022-10-29T06:54:28.526Z,16.88
2022-10-29T06:55:28.528Z,16.88
2022-10-29T06:56:28.508Z,22.5
2022-10-29T06:57:28.507Z,22.5
2022-10-29T06:58:28.484Z,22.5
2022-10-29T06:59:28.482Z,22.5
2022-10-29T07:00:28.461Z,22.5
2022-10-29T07:01:28.457Z,28.12
2022-10-29T07:02:28.445Z,28.12
2022-10-29T07:03:28.436Z,28.12
2022-10-29T07:04:28.418Z,28.12
2022-10-29T07:05:28.417Z,28.12
2022-10-29T07:06:28.406Z,28.12
2022-10-29T07:07:28.393Z,28.12
2022-10-29T07:08:28.378Z,28.12
2022-10-29T07:09:28.372Z,28.12
2022-10-29T07:10:28.357Z,28.12
2022-10-29T07:11:28.359Z,28.12
2022-10-29T07:12:28.338Z,28.12
2022-10-29T07:13:28.326Z,28.12
2022-10-29T07:14:28.311Z,22.5
2022-10-29T07:15:28.304Z,22.5
2022-10-29T07:16:28.312Z,22.5
2022-10-29T07:17:28.281Z,22.5
2022-10-29T07:18:28.278Z,22.5
2022-10-29T07:19:28.259Z,22.5
2022-10-29T07:20:28.248Z,28.12
2022-10-29T07:21:28.235Z,28.12
2022-10-29T07:22:28.225Z,28.12
2022-10-29T07:24:28.206Z,28.12
2022-10-29T07:25:28.199Z,28.12
2022-10-29T07:26:28.193Z,28.12
2022-10-29T07:27:28.179Z,28.12
2022-10-29T07:28:28.164Z,28.12
2022-10-29T07:29:28.150Z,28.12
2022-10-29T07:30:28.154Z,33.75
2022-10-29T07:31:28.131Z,33.75
2022-10-29T07:32:28.125Z,33.75
2022-10-29T07:33:28.113Z,39.38
2022-10-29T07:34:28.098Z,39.38
2022-10-29T07:35:28.097Z,39.38
2022-10-29T07:36:28.076Z,39.38
2022-10-29T07:37:28.081Z,39.38
2022-10-29T07:38:28.057Z,45
2022-10-29T07:39:28.041Z,45
2022-10-29T07:40:28.039Z,45
2022-10-29T07:41:28.027Z,50.62
2022-10-29T07:42:28.015Z,50.62
2022-10-29T07:43:28.030Z,50.62
2022-10-29T07:44:28.005Z,56.25
2022-10-29T07:45:27.993Z,56.25
2022-10-29T07:46:27.977Z,56.25
2022-10-29T07:47:27.964Z,61.88
2022-10-29T07:48:27.955Z,61.88
2022-10-29T07:49:27.950Z,61.88
2022-10-29T07:50:27.931Z,67.5
2022-10-29T07:51:27.917Z,67.5
2022-10-29T07:52:27.902Z,67.5
2022-10-29T07:53:27.899Z,73.12
2022-10-29T07:54:27.961Z,67.5
2022-10-29T07:56:27.889Z,67.5
2022-10-29T07:57:27.856Z,67.5
2022-10-29T07:58:27.842Z,73.12
2022-10-29T07:59:27.882Z,73.12
2022-10-29T08:00:27.810Z,73.12
2022-10-29T08:01:27.803Z,73.12
2022-10-29T08:02:27.805Z,73.12
2022-10-29T08:03:27.793Z,73.12
2022-10-29T08:04:27.784Z,73.12
2022-10-29T08:05:27.757Z,73.12
2022-10-29T08:06:27.749Z,73.12
2022-10-29T08:07:27.743Z,78.75
2022-10-29T08:08:27.746Z,78.75
2022-10-29T08:09:27.718Z,78.75
2022-10-29T08:10:27.724Z,73.12
2022-10-29T08:11:27.713Z,73.12
2022-10-29T08:12:27.687Z,73.12
2022-10-29T08:13:27.678Z,73.12
2022-10-29T08:14:27.670Z,73.12
2022-10-29T08:15:27.652Z,73.12
2022-10-29T08:16:27.638Z,78.75
2022-10-29T08:17:27.631Z,78.75
2022-10-29T08:18:27.619Z,84.38
2022-10-29T08:19:27.614Z,84.38
2022-10-29T08:20:27.605Z,84.38
2022-10-29T08:21:27.589Z,90
2022-10-29T08:22:27.580Z,90
2022-10-29T08:23:27.563Z,90
2022-10-29T08:24:27.552Z,95.62
2022-10-29T08:25:27.545Z,95.62
2022-10-29T08:26:27.554Z,95.62
2022-10-29T08:27:27.528Z,95.62
2022-10-29T08:28:27.523Z,95.62
2022-10-29T08:29:27.510Z,95.62
2022-10-29T08:30:27.500Z,95.62
2022-10-29T08:31:27.483Z,90
2022-10-29T08:32:27.476Z,90
2022-10-29T08:33:27.500Z,90
2022-10-29T08:34:27.468Z,90
2022-10-29T08:35:27.480Z,90
2022-10-29T08:36:27.433Z,90
2022-10-29T08:37:27.417Z,84.38
2022-10-29T08:38:27.406Z,78.75
2022-10-29T08:39:27.404Z,73.12
2022-10-29T08:40:27.393Z,67.5
2022-10-29T08:41:27.380Z,67.5
2022-10-29T08:42:27.396Z,67.5
2022-10-29T08:43:27.385Z,61.88
2022-10-29T08:44:27.388Z,61.88
2022-10-29T08:45:27.362Z,61.88
2022-10-29T08:46:27.330Z,56.25
2022-10-29T08:47:27.328Z,56.25
2022-10-29T08:48:27.307Z,56.25
2022-10-29T08:49:27.313Z,61.88
2022-10-29T08:50:27.289Z,61.88
2022-10-29T08:51:27.292Z,61.88
2022-10-29T08:52:27.256Z,56.25
2022-10-29T08:53:27.948Z,56.25
2022-10-29T08:54:27.238Z,56.25
2022-10-29T08:55:27.223Z,56.25
2022-10-29T08:56:27.249Z,56.25
2022-10-29T08:57:27.245Z,50.62
2022-10-29T08:58:27.194Z,50.62
2022-10-29T08:59:27.179Z,50.62
2022-10-29T09:00:27.173Z,45
2022-10-29T09:01:27.164Z,45
2022-10-29T09:02:27.152Z,45
2022-10-29T09:03:27.140Z,45
2022-10-29T09:04:27.129Z,45
2022-10-29T09:05:27.132Z,39.38
2022-10-29T09:06:27.110Z,39.38
2022-10-29T09:07:27.104Z,45
2022-10-29T09:08:27.096Z,45
2022-10-29T09:09:27.091Z,50.62
2022-10-29T09:10:27.067Z,50.62
2022-10-29T09:11:27.055Z,56.25
2022-10-29T09:12:27.041Z,56.25
2022-10-29T09:13:27.067Z,50.62
2022-10-29T09:14:27.018Z,50.62
2022-10-29T09:15:27.007Z,50.62
2022-10-29T09:16:27.006Z,50.62
2022-10-29T09:17:27.029Z,45
2022-10-29T09:18:26.977Z,50.62
2022-10-29T09:19:26.966Z,50.62
2022-10-29T09:20:26.951Z,56.25
2022-10-29T09:21:26.953Z,61.88
2022-10-29T09:22:26.932Z,67.5
2022-10-29T09:23:26.926Z,67.5
2022-10-29T09:24:26.922Z,67.5
2022-10-29T09:25:26.929Z,67.5
2022-10-29T09:26:26.922Z,67.5
2022-10-29T09:27:26.897Z,67.5
2022-10-29T09:28:26.872Z,67.5
2022-10-29T09:29:26.865Z,67.5
2022-10-29T09:30:26.851Z,67.5
2022-10-29T09:31:26.868Z,67.5
2022-10-29T09:32:26.829Z,73.12
2022-10-29T09:33:26.817Z,78.75
2022-10-29T09:34:26.814Z,84.38
2022-10-29T09:35:26.793Z,90
2022-10-29T09:36:26.783Z,101.25
2022-10-29T09:37:26.778Z,118.12
2022-10-29T09:38:26.762Z,135
2022-10-29T09:39:26.757Z,151.88
2022-10-29T09:40:26.743Z,163.12
2022-10-29T09:41:26.769Z,168.75
2022-10-29T09:42:26.725Z,163.12
2022-10-29T09:43:26.716Z,157.5
2022-10-29T09:44:26.700Z,157.5
2022-10-29T09:45:26.693Z,163.12
2022-10-29T09:46:26.682Z,168.75
2022-10-29T09:47:26.685Z,168.75
2022-10-29T09:48:26.676Z,174.38
2022-10-29T09:49:26.648Z,180
2022-10-29T09:50:26.647Z,180
2022-10-29T09:51:26.638Z,180
2022-10-29T09:52:26.636Z,191.25
2022-10-29T09:53:26.609Z,196.88
2022-10-29T09:54:26.658Z,202.5
2022-10-29T09:55:26.625Z,202.5
2022-10-29T09:56:26.582Z,208.12
2022-10-29T09:57:26.635Z,202.5
2022-10-29T09:58:26.553Z,196.88
2022-10-29T09:59:26.556Z,202.5
2022-10-29T10:00:26.588Z,213.75
2022-10-29T10:01:26.635Z,213.75
2022-10-29T10:02:26.547Z,213.75
2022-10-29T10:03:26.500Z,213.75
2022-10-29T10:04:26.492Z,213.75
2022-10-29T10:05:26.500Z,230.62
2022-10-29T10:06:26.471Z,247.5
2022-10-29T10:07:26.471Z,253.12
2022-10-29T10:08:26.448Z,241.88
2022-10-29T10:09:26.443Z,236.25
2022-10-29T10:10:26.437Z,225
2022-10-29T10:11:26.420Z,213.75
2022-10-29T10:12:36.354Z,202.5
2022-10-29T10:13:26.397Z,208.12
2022-10-29T10:14:26.438Z,213.75
2022-10-29T10:15:26.396Z,230.62
2022-10-29T10:16:26.535Z,230.62
2022-10-29T10:17:26.365Z,230.62
2022-10-29T10:18:26.354Z,230.62
2022-10-29T10:19:26.333Z,236.25
2022-10-29T10:20:27.042Z,230.62
2022-10-29T10:21:26.382Z,230.62
2022-10-29T10:22:26.314Z,230.62
2022-10-29T10:23:26.296Z,236.25
2022-10-29T10:24:26.284Z,241.88
2022-10-29T10:25:26.335Z,236.25
2022-10-29T10:26:26.269Z,236.25
2022-10-29T10:27:29.019Z,230.62
2022-10-29T10:28:26.287Z,230.62
2022-10-29T10:29:26.305Z,241.88
2022-10-29T10:30:36.725Z,241.88
2022-10-29T10:31:26.291Z,236.25
2022-10-29T10:32:27.212Z,236.25
2022-10-29T10:34:44.989Z,258.75
2022-10-29T10:35:44.942Z,264.38
2022-10-29T10:36:45.035Z,253.12
2022-10-29T10:37:45.077Z,241.88
2022-10-29T10:38:44.935Z,241.88
2022-10-29T10:39:44.886Z,236.25
2022-10-29T10:40:44.883Z,236.25
2022-10-29T10:41:44.872Z,213.75
2022-10-29T10:42:44.861Z,213.75
2022-10-29T10:43:44.839Z,196.88
2022-10-29T10:44:44.811Z,191.25
2022-10-29T10:45:44.807Z,196.88
2022-10-29T10:46:44.810Z,213.75
2022-10-29T10:47:44.882Z,230.62
2022-10-29T10:48:44.772Z,241.88
2022-10-29T10:49:45.615Z,258.75
2022-10-29T10:50:44.749Z,264.38
2022-10-29T10:51:44.732Z,281.25
2022-10-29T10:52:44.777Z,275.62
2022-10-29T10:53:45.760Z,286.88
2022-10-29T10:54:44.715Z,292.5
2022-10-29T10:55:44.859Z,309.38
2022-10-29T10:56:44.872Z,309.38
2022-10-29T10:57:44.737Z,298.12
2022-10-29T10:58:44.830Z,292.5
2022-10-29T10:59:44.672Z,286.88
2022-10-29T11:00:44.681Z,281.25
2022-10-29T11:01:44.782Z,275.62
2022-10-29T11:02:44.808Z,275.62
2022-10-29T11:03:44.685Z,281.25
2022-10-29T11:04:44.749Z,286.88
2022-10-29T11:05:44.952Z,286.88
2022-10-29T11:06:44.649Z,298.12
2022-10-29T11:07:44.623Z,309.38
2022-10-29T11:08:44.575Z,326.25
2022-10-29T11:09:44.543Z,320.62
2022-10-29T11:10:44.573Z,326.25
2022-10-29T11:11:44.552Z,309.38
2022-10-29T11:12:44.513Z,320.62
2022-10-29T11:13:44.611Z,326.25
2022-10-29T11:14:44.514Z,343.12
2022-10-29T11:15:44.582Z,360
2022-10-29T11:16:44.520Z,343.12
2022-10-29T11:17:44.579Z,382.5
2022-10-29T11:18:44.693Z,388.12
2022-10-29T11:19:44.498Z,478.12
2022-10-29T11:20:44.448Z,551.25
2022-10-29T11:21:44.560Z,1040.62
2022-10-29T11:22:44.456Z,461.25
2022-10-29T11:23:44.440Z,1580.62
2022-10-29T11:24:44.508Z,1884.38
2022-10-29T11:25:44.470Z,1485
2022-10-29T11:26:44.376Z,990
2022-10-29T11:27:44.353Z,618.75
2022-10-29T11:28:44.535Z,1271.25
2022-10-29T11:29:44.534Z,1833.75
2022-10-29T11:30:44.424Z,1670.62
2022-10-29T11:31:44.384Z,1963.12
2022-10-29T11:32:44.314Z,1996.88
2022-10-29T11:33:44.297Z,1029.38
2022-10-29T11:34:44.281Z,573.75
2022-10-29T11:35:44.319Z,495
2022-10-29T11:36:44.266Z,720
2022-10-29T11:37:44.264Z,517.5
2022-10-29T11:38:44.275Z,551.25
2022-10-29T11:39:45.236Z,731.25
2022-10-29T11:40:44.229Z,781.88
2022-10-29T11:41:44.263Z,618.75
2022-10-29T11:42:44.217Z,376.88
2022-10-29T11:43:44.220Z,450
2022-10-29T11:44:44.186Z,928.12
2022-10-29T11:45:44.175Z,517.5
2022-10-29T11:46:44.215Z,399.38
2022-10-29T11:47:44.172Z,225
2022-10-29T11:48:44.189Z,168.75
2022-10-29T11:49:44.154Z,157.5
2022-10-29T11:50:44.209Z,146.25
2022-10-29T11:51:45.118Z,146.25
2022-10-29T11:52:44.117Z,157.5
2022-10-29T11:53:44.220Z,151.88
2022-10-29T11:54:44.088Z,135
2022-10-29T11:55:44.092Z,123.75
2022-10-29T11:56:44.095Z,118.12
2022-10-29T11:57:44.068Z,112.5
2022-10-29T11:58:44.033Z,118.12
2022-10-29T11:59:44.052Z,140.62
2022-10-29T12:00:44.118Z,208.12
2022-10-29T12:01:44.001Z,298.12
2022-10-29T12:02:44.024Z,888.75
2022-10-29T12:03:43.976Z,1102.5
2022-10-29T12:04:43.979Z,1327.5
2022-10-29T12:05:43.979Z,1074.38
2022-10-29T12:06:43.954Z,1642.5
2022-10-29T12:07:43.977Z,1693.12
2022-10-29T12:08:44.182Z,1856.25
2022-10-29T12:09:44.250Z,1957.5
2022-10-29T12:10:43.940Z,1968.75
2022-10-29T12:11:43.918Z,1873.12
2022-10-29T12:12:43.890Z,1732.5
2022-10-29T12:13:43.877Z,1271.25
2022-10-29T12:14:43.863Z,1400.62
2022-10-29T12:15:43.882Z,1350
2022-10-29T12:16:43.853Z,855
2022-10-29T12:17:43.835Z,438.75
2022-10-29T12:18:43.964Z,405
2022-10-29T12:19:43.830Z,365.62
2022-10-29T12:20:43.984Z,331.88
2022-10-29T12:21:43.793Z,320.62
2022-10-29T12:22:43.797Z,315
2022-10-29T12:23:43.794Z,303.75
2022-10-29T12:24:43.765Z,281.25
2022-10-29T12:25:43.789Z,258.75
2022-10-29T12:26:43.748Z,241.88
2022-10-29T12:27:43.732Z,230.62
2022-10-29T12:28:43.738Z,219.38
2022-10-29T12:29:43.711Z,213.75
2022-10-29T12:30:43.755Z,202.5
2022-10-29T12:31:43.756Z,191.25
2022-10-29T12:32:43.695Z,191.25
2022-10-29T12:33:43.709Z,185.62
2022-10-29T12:34:44.057Z,180
2022-10-29T12:35:44.651Z,140.62
2022-10-29T12:36:43.653Z,135
2022-10-29T12:37:43.638Z,151.88
2022-10-29T12:38:43.673Z,191.25
2022-10-29T12:39:43.620Z,180
2022-10-29T12:40:43.668Z,168.75
2022-10-29T12:41:43.589Z,146.25
2022-10-29T12:42:43.577Z,123.75
2022-10-29T12:43:43.574Z,112.5
2022-10-29T12:44:43.619Z,106.88
2022-10-29T12:45:43.580Z,101.25
2022-10-29T12:46:43.547Z,95.62
2022-10-29T12:47:43.537Z,90
2022-10-29T12:48:43.543Z,95.62
2022-10-29T12:49:43.511Z,101.25
2022-10-29T12:50:43.499Z,106.88
2022-10-29T12:51:43.500Z,112.5
2022-10-29T12:52:43.507Z,123.75
2022-10-29T12:53:43.476Z,135
2022-10-29T12:54:43.460Z,151.88
2022-10-29T12:55:43.436Z,151.88
2022-10-29T12:56:43.423Z,146.25
2022-10-29T12:57:43.523Z,140.62
2022-10-29T12:58:43.410Z,135
2022-10-29T12:59:43.392Z,123.75
2022-10-29T13:00:43.403Z,118.12
2022-10-29T13:01:43.368Z,118.12
2022-10-29T13:02:43.399Z,129.38
2022-10-29T13:03:43.356Z,135
2022-10-29T13:04:43.362Z,129.38
2022-10-29T13:05:43.327Z,123.75
2022-10-29T13:06:43.448Z,118.12
2022-10-29T13:07:43.336Z,112.5
2022-10-29T13:08:43.295Z,112.5
2022-10-29T13:09:43.289Z,106.88
2022-10-29T13:10:43.300Z,112.5
2022-10-29T13:11:43.265Z,118.12
2022-10-29T13:12:43.260Z,129.38
2022-10-29T13:13:43.239Z,140.62
2022-10-29T13:14:43.232Z,140.62
2022-10-29T13:15:43.230Z,135
2022-10-29T13:16:43.205Z,135
2022-10-29T13:17:43.226Z,123.75
2022-10-29T13:18:43.194Z,112.5
2022-10-29T13:19:43.177Z,106.88
2022-10-29T13:20:43.170Z,106.88
2022-10-29T13:21:43.157Z,112.5
2022-10-29T13:23:43.134Z,106.88
2022-10-29T13:24:43.128Z,95.62
2022-10-29T13:25:43.239Z,84.38
2022-10-29T13:26:43.099Z,78.75
2022-10-29T13:27:43.173Z,78.75
2022-10-29T13:28:43.183Z,84.38
2022-10-29T13:29:43.100Z,95.62
2022-10-29T13:30:43.079Z,112.5
2022-10-29T13:31:43.061Z,118.12
2022-10-29T13:32:43.055Z,118.12
2022-10-29T13:33:43.033Z,112.5
2022-10-29T13:34:43.106Z,106.88
2022-10-29T13:35:43.016Z,101.25
2022-10-29T13:36:43.004Z,101.25
2022-10-29T13:37:42.998Z,112.5
2022-10-29T13:38:42.987Z,123.75
2022-10-29T13:39:42.989Z,129.38
2022-10-29T13:40:42.960Z,129.38
2022-10-29T13:41:42.949Z,112.5
2022-10-29T13:42:42.942Z,90
2022-10-29T13:43:42.934Z,90
2022-10-29T13:44:42.930Z,90
2022-10-29T13:45:42.917Z,90
2022-10-29T13:46:42.903Z,101.25
2022-10-29T13:47:42.894Z,106.88
2022-10-29T13:48:42.884Z,106.88